sensor_id;sensor_type;location;lat;lon;timestamp;P1;durP1;ratioP1;P2;durP2;ratioP2
35592;SDS011;64447;52.140;5.602;2023-07-08T00:00:12;10.00;;;4.38;;
35592;SDS011;64447;52.140;5.602;2023-07-08T00:02:40;4.55;;;3.78;;
35592;SDS011;64447;52.140;5.602;2023-07-08T00:05:07;5.93;;;4.05;;
35592;SDS011;64447;52.140;5.602;2023-07-08T00:07:35;6.20;;;4.00;;
35592;SDS011;64447;52.140;5.602;2023-07-08T00:10:00;6.10;;;4.50;;
35592;SDS011;64447;52.140;5.602;2023-07-08T00:12:26;4.35;;;3.90;;
35592;SDS011;64447;52.140;5.602;2023-07-08T00:14:51;5.10;;;4.15;;
35592;SDS011;64447;52.140;5.602;2023-07-08T00:17:17;5.70;;;4.45;;
35592;SDS011;64447;52.140;5.602;2023-07-08T00:19:42;8.20;;;4.22;;
35592;SDS011;64447;52.140;5.602;2023-07-08T00:22:10;5.18;;;3.85;;
35592;SDS011;64447;52.140;5.602;2023-07-08T00:24:39;5.78;;;4.00;;
35592;SDS011;64447;52.140;5.602;2023-07-08T00:27:07;5.95;;;3.67;;
35592;SDS011;64447;52.140;5.602;2023-07-08T00:29:35;9.23;;;4.28;;
35592;SDS011;64447;52.140;5.602;2023-07-08T00:32:00;7.47;;;3.88;;
35592;SDS011;64447;52.140;5.602;2023-07-08T00:34:26;7.35;;;4.28;;
35592;SDS011;64447;52.140;5.602;2023-07-08T00:36:51;7.25;;;4.50;;
35592;SDS011;64447;52.140;5.602;2023-07-08T00:39:17;4.85;;;3.53;;
35592;SDS011;64447;52.140;5.602;2023-07-08T00:41:43;6.13;;;3.92;;
35592;SDS011;64447;52.140;5.602;2023-07-08T00:44:10;7.13;;;4.05;;
35592;SDS011;64447;52.140;5.602;2023-07-08T00:49:17;4.88;;;4.25;;
35592;SDS011;64447;52.140;5.602;2023-07-08T00:51:47;9.80;;;4.45;;
35592;SDS011;64447;52.140;5.602;2023-07-08T00:54:14;4.75;;;4.05;;
35592;SDS011;64447;52.140;5.602;2023-07-08T00:56:53;5.32;;;4.05;;
35592;SDS011;64447;52.140;5.602;2023-07-08T00:59:33;5.28;;;4.25;;
35592;SDS011;64447;52.140;5.602;2023-07-08T01:02:20;5.95;;;4.38;;
35592;SDS011;64447;52.140;5.602;2023-07-08T01:07:21;7.00;;;4.57;;
35592;SDS011;64447;52.140;5.602;2023-07-08T01:09:51;8.90;;;4.35;;
35592;SDS011;64447;52.140;5.602;2023-07-08T01:12:29;4.72;;;4.22;;
35592;SDS011;64447;52.140;5.602;2023-07-08T01:14:57;8.80;;;4.50;;
35592;SDS011;64447;52.140;5.602;2023-07-08T01:17:27;5.40;;;4.05;;
35592;SDS011;64447;52.140;5.602;2023-07-08T01:19:58;5.72;;;4.43;;
35592;SDS011;64447;52.140;5.602;2023-07-08T01:22:30;7.70;;;4.63;;
35592;SDS011;64447;52.140;5.602;2023-07-08T01:24:59;6.68;;;4.75;;
35592;SDS011;64447;52.140;5.602;2023-07-08T01:27:30;6.38;;;4.07;;
35592;SDS011;64447;52.140;5.602;2023-07-08T01:30:03;4.65;;;4.00;;
35592;SDS011;64447;52.140;5.602;2023-07-08T01:32:29;6.53;;;3.90;;
35592;SDS011;64447;52.140;5.602;2023-07-08T01:34:59;5.55;;;4.40;;
35592;SDS011;64447;52.140;5.602;2023-07-08T01:37:30;6.60;;;4.32;;
35592;SDS011;64447;52.140;5.602;2023-07-08T01:40:22;6.32;;;4.38;;
35592;SDS011;64447;52.140;5.602;2023-07-08T01:42:50;6.05;;;4.20;;
35592;SDS011;64447;52.140;5.602;2023-07-08T01:45:18;5.15;;;4.05;;
35592;SDS011;64447;52.140;5.602;2023-07-08T01:47:47;5.80;;;3.88;;
35592;SDS011;64447;52.140;5.602;2023-07-08T01:50:16;6.18;;;4.13;;
35592;SDS011;64447;52.140;5.602;2023-07-08T01:52:44;5.28;;;3.97;;
35592;SDS011;64447;52.140;5.602;2023-07-08T01:55:10;5.85;;;4.00;;
35592;SDS011;64447;52.140;5.602;2023-07-08T01:57:36;5.40;;;4.00;;
35592;SDS011;64447;52.140;5.602;2023-07-08T02:00:02;5.07;;;4.40;;
35592;SDS011;64447;52.140;5.602;2023-07-08T02:02:27;7.07;;;4.55;;
35592;SDS011;64447;52.140;5.602;2023-07-08T02:04:53;8.68;;;4.20;;
35592;SDS011;64447;52.140;5.602;2023-07-08T02:07:18;5.78;;;4.35;;
35592;SDS011;64447;52.140;5.602;2023-07-08T02:09:44;5.10;;;4.20;;
35592;SDS011;64447;52.140;5.602;2023-07-08T02:12:10;5.10;;;3.78;;
35592;SDS011;64447;52.140;5.602;2023-07-08T02:14:35;6.80;;;3.92;;
35592;SDS011;64447;52.140;5.602;2023-07-08T02:17:01;4.95;;;4.22;;
35592;SDS011;64447;52.140;5.602;2023-07-08T02:19:30;5.22;;;4.10;;
35592;SDS011;64447;52.140;5.602;2023-07-08T02:21:56;5.38;;;4.38;;
35592;SDS011;64447;52.140;5.602;2023-07-08T02:24:22;10.60;;;4.47;;
35592;SDS011;64447;52.140;5.602;2023-07-08T02:26:48;7.13;;;3.97;;
35592;SDS011;64447;52.140;5.602;2023-07-08T02:29:14;4.75;;;3.90;;
35592;SDS011;64447;52.140;5.602;2023-07-08T02:31:40;6.95;;;4.40;;
35592;SDS011;64447;52.140;5.602;2023-07-08T02:34:05;6.03;;;4.03;;
35592;SDS011;64447;52.140;5.602;2023-07-08T02:36:32;5.25;;;3.88;;
35592;SDS011;64447;52.140;5.602;2023-07-08T02:42:21;5.45;;;4.18;;
35592;SDS011;64447;52.140;5.602;2023-07-08T02:44:47;7.20;;;4.32;;
35592;SDS011;64447;52.140;5.602;2023-07-08T02:47:12;8.18;;;4.70;;
35592;SDS011;64447;52.140;5.602;2023-07-08T02:49:38;5.22;;;3.63;;
35592;SDS011;64447;52.140;5.602;2023-07-08T02:52:03;5.05;;;3.85;;
35592;SDS011;64447;52.140;5.602;2023-07-08T02:54:29;5.28;;;3.88;;
35592;SDS011;64447;52.140;5.602;2023-07-08T02:56:55;5.88;;;4.25;;
35592;SDS011;64447;52.140;5.602;2023-07-08T02:59:20;5.60;;;4.07;;
35592;SDS011;64447;52.140;5.602;2023-07-08T03:01:46;6.13;;;4.25;;
35592;SDS011;64447;52.140;5.602;2023-07-08T03:04:12;5.00;;;4.20;;
35592;SDS011;64447;52.140;5.602;2023-07-08T03:06:42;7.82;;;4.47;;
35592;SDS011;64447;52.140;5.602;2023-07-08T03:12:30;5.18;;;4.30;;
35592;SDS011;64447;52.140;5.602;2023-07-08T03:14:56;5.53;;;4.43;;
35592;SDS011;64447;52.140;5.602;2023-07-08T03:17:22;6.40;;;4.30;;
35592;SDS011;64447;52.140;5.602;2023-07-08T03:19:47;5.85;;;4.05;;
35592;SDS011;64447;52.140;5.602;2023-07-08T03:22:13;8.15;;;4.68;;
35592;SDS011;64447;52.140;5.602;2023-07-08T03:24:38;7.85;;;4.22;;
35592;SDS011;64447;52.140;5.602;2023-07-08T03:27:11;4.88;;;4.05;;
35592;SDS011;64447;52.140;5.602;2023-07-08T03:29:38;6.40;;;4.40;;
35592;SDS011;64447;52.140;5.602;2023-07-08T03:32:04;5.70;;;4.32;;
35592;SDS011;64447;52.140;5.602;2023-07-08T03:34:30;5.82;;;4.40;;
35592;SDS011;64447;52.140;5.602;2023-07-08T03:36:55;5.90;;;4.43;;
35592;SDS011;64447;52.140;5.602;2023-07-08T03:42:42;5.43;;;4.10;;
35592;SDS011;64447;52.140;5.602;2023-07-08T03:45:08;7.22;;;4.28;;
35592;SDS011;64447;52.140;5.602;2023-07-08T03:47:34;5.63;;;4.47;;
35592;SDS011;64447;52.140;5.602;2023-07-08T03:50:00;7.85;;;4.70;;
35592;SDS011;64447;52.140;5.602;2023-07-08T03:52:25;6.28;;;4.55;;
35592;SDS011;64447;52.140;5.602;2023-07-08T03:54:51;6.25;;;4.60;;
35592;SDS011;64447;52.140;5.602;2023-07-08T03:57:17;6.03;;;4.10;;
35592;SDS011;64447;52.140;5.602;2023-07-08T03:59:42;5.40;;;4.60;;
35592;SDS011;64447;52.140;5.602;2023-07-08T04:02:09;9.30;;;4.90;;
35592;SDS011;64447;52.140;5.602;2023-07-08T04:04:36;5.40;;;3.75;;
35592;SDS011;64447;52.140;5.602;2023-07-08T04:07:03;10.85;;;4.53;;
35592;SDS011;64447;52.140;5.602;2023-07-08T04:12:50;7.82;;;4.18;;
35592;SDS011;64447;52.140;5.602;2023-07-08T04:15:16;4.65;;;3.88;;
35592;SDS011;64447;52.140;5.602;2023-07-08T04:17:43;6.70;;;4.13;;
35592;SDS011;64447;52.140;5.602;2023-07-08T04:20:13;6.80;;;4.30;;
35592;SDS011;64447;52.140;5.602;2023-07-08T04:22:41;5.40;;;4.30;;
35592;SDS011;64447;52.140;5.602;2023-07-08T04:25:06;7.40;;;4.05;;
35592;SDS011;64447;52.140;5.602;2023-07-08T04:27:32;6.03;;;4.30;;
35592;SDS011;64447;52.140;5.602;2023-07-08T04:29:58;6.05;;;4.57;;
35592;SDS011;64447;52.140;5.602;2023-07-08T04:32:24;5.40;;;4.50;;
35592;SDS011;64447;52.140;5.602;2023-07-08T04:34:50;7.38;;;4.38;;
35592;SDS011;64447;52.140;5.602;2023-07-08T04:37:16;6.13;;;5.00;;
35592;SDS011;64447;52.140;5.602;2023-07-08T04:43:03;4.85;;;4.22;;
35592;SDS011;64447;52.140;5.602;2023-07-08T04:45:29;7.03;;;4.63;;
35592;SDS011;64447;52.140;5.602;2023-07-08T04:47:55;5.85;;;4.75;;
35592;SDS011;64447;52.140;5.602;2023-07-08T04:50:20;6.05;;;4.57;;
35592;SDS011;64447;52.140;5.602;2023-07-08T04:52:46;7.60;;;4.80;;
35592;SDS011;64447;52.140;5.602;2023-07-08T04:55:12;5.18;;;4.20;;
35592;SDS011;64447;52.140;5.602;2023-07-08T04:57:38;6.15;;;4.22;;
35592;SDS011;64447;52.140;5.602;2023-07-08T05:00:05;7.47;;;4.88;;
35592;SDS011;64447;52.140;5.602;2023-07-08T05:02:33;6.97;;;4.47;;
35592;SDS011;64447;52.140;5.602;2023-07-08T05:04:59;6.05;;;4.60;;
35592;SDS011;64447;52.140;5.602;2023-07-08T05:07:24;5.07;;;4.32;;
35592;SDS011;64447;52.140;5.602;2023-07-08T05:13:12;8.10;;;4.53;;
35592;SDS011;64447;52.140;5.602;2023-07-08T05:15:38;7.10;;;4.55;;
35592;SDS011;64447;52.140;5.602;2023-07-08T05:18:03;6.90;;;4.28;;
35592;SDS011;64447;52.140;5.602;2023-07-08T05:20:29;6.45;;;4.35;;
35592;SDS011;64447;52.140;5.602;2023-07-08T05:22:56;8.05;;;4.50;;
35592;SDS011;64447;52.140;5.602;2023-07-08T05:25:21;6.13;;;4.53;;
35592;SDS011;64447;52.140;5.602;2023-07-08T05:27:47;6.45;;;3.92;;
35592;SDS011;64447;52.140;5.602;2023-07-08T05:30:15;5.90;;;4.55;;
35592;SDS011;64447;52.140;5.602;2023-07-08T05:32:42;6.57;;;4.45;;
35592;SDS011;64447;52.140;5.602;2023-07-08T05:35:08;7.05;;;4.30;;
35592;SDS011;64447;52.140;5.602;2023-07-08T05:37:34;7.53;;;4.13;;
35592;SDS011;64447;52.140;5.602;2023-07-08T05:43:21;6.00;;;4.45;;
35592;SDS011;64447;52.140;5.602;2023-07-08T05:45:47;7.05;;;4.50;;
35592;SDS011;64447;52.140;5.602;2023-07-08T05:48:13;11.23;;;4.93;;
35592;SDS011;64447;52.140;5.602;2023-07-08T05:50:39;8.65;;;4.35;;
35592;SDS011;64447;52.140;5.602;2023-07-08T05:53:05;8.95;;;4.32;;
35592;SDS011;64447;52.140;5.602;2023-07-08T05:55:34;5.03;;;3.95;;
35592;SDS011;64447;52.140;5.602;2023-07-08T05:58:00;5.88;;;4.32;;
35592;SDS011;64447;52.140;5.602;2023-07-08T06:00:25;6.90;;;4.50;;
35592;SDS011;64447;52.140;5.602;2023-07-08T06:02:51;5.45;;;4.00;;
35592;SDS011;64447;52.140;5.602;2023-07-08T06:05:16;5.50;;;4.43;;
35592;SDS011;64447;52.140;5.602;2023-07-08T06:07:42;5.43;;;4.35;;
35592;SDS011;64447;52.140;5.602;2023-07-08T06:13:29;7.15;;;4.15;;
35592;SDS011;64447;52.140;5.602;2023-07-08T06:15:55;8.10;;;4.40;;
35592;SDS011;64447;52.140;5.602;2023-07-08T06:18:21;5.72;;;4.03;;
35592;SDS011;64447;52.140;5.602;2023-07-08T06:20:50;5.03;;;4.15;;
35592;SDS011;64447;52.140;5.602;2023-07-08T06:23:17;5.72;;;4.53;;
35592;SDS011;64447;52.140;5.602;2023-07-08T06:25:43;6.70;;;4.30;;
35592;SDS011;64447;52.140;5.602;2023-07-08T06:28:08;8.00;;;4.43;;
35592;SDS011;64447;52.140;5.602;2023-07-08T06:30:34;4.32;;;3.83;;
35592;SDS011;64447;52.140;5.602;2023-07-08T06:32:59;6.25;;;4.35;;
35592;SDS011;64447;52.140;5.602;2023-07-08T06:35:25;5.80;;;4.30;;
35592;SDS011;64447;52.140;5.602;2023-07-08T06:37:50;5.95;;;4.32;;
35592;SDS011;64447;52.140;5.602;2023-07-08T06:43:38;4.93;;;4.05;;
35592;SDS011;64447;52.140;5.602;2023-07-08T06:46:04;7.38;;;4.25;;
35592;SDS011;64447;52.140;5.602;2023-07-08T06:48:31;5.38;;;4.47;;
35592;SDS011;64447;52.140;5.602;2023-07-08T06:50:57;6.10;;;4.63;;
35592;SDS011;64447;52.140;5.602;2023-07-08T06:53:23;5.05;;;4.00;;
35592;SDS011;64447;52.140;5.602;2023-07-08T06:55:49;7.50;;;4.70;;
35592;SDS011;64447;52.140;5.602;2023-07-08T06:58:14;5.35;;;4.25;;
35592;SDS011;64447;52.140;5.602;2023-07-08T07:00:43;4.88;;;4.03;;
35592;SDS011;64447;52.140;5.602;2023-07-08T07:03:10;5.72;;;3.90;;
35592;SDS011;64447;52.140;5.602;2023-07-08T07:05:36;5.40;;;4.03;;
35592;SDS011;64447;52.140;5.602;2023-07-08T07:08:03;11.80;;;4.20;;
35592;SDS011;64447;52.140;5.602;2023-07-08T07:10:29;5.13;;;3.55;;
35592;SDS011;64447;52.140;5.602;2023-07-08T07:12:55;6.00;;;4.03;;
35592;SDS011;64447;52.140;5.602;2023-07-08T07:15:21;4.45;;;4.03;;
35592;SDS011;64447;52.140;5.602;2023-07-08T07:17:46;9.15;;;4.57;;
35592;SDS011;64447;52.140;5.602;2023-07-08T07:20:12;5.20;;;3.90;;
35592;SDS011;64447;52.140;5.602;2023-07-08T07:22:38;6.50;;;4.35;;
35592;SDS011;64447;52.140;5.602;2023-07-08T07:28:25;5.32;;;4.30;;
35592;SDS011;64447;52.140;5.602;2023-07-08T07:31:00;5.75;;;4.03;;
35592;SDS011;64447;52.140;5.602;2023-07-08T07:33:26;7.32;;;5.30;;
35592;SDS011;64447;52.140;5.602;2023-07-08T07:35:52;8.85;;;5.05;;
35592;SDS011;64447;52.140;5.602;2023-07-08T07:38:17;6.15;;;4.95;;
35592;SDS011;64447;52.140;5.602;2023-07-08T07:40:43;6.22;;;4.32;;
35592;SDS011;64447;52.140;5.602;2023-07-08T07:43:09;7.20;;;4.60;;
35592;SDS011;64447;52.140;5.602;2023-07-08T07:45:34;5.97;;;4.40;;
35592;SDS011;64447;52.140;5.602;2023-07-08T07:48:00;6.03;;;4.45;;
35592;SDS011;64447;52.140;5.602;2023-07-08T07:50:26;8.98;;;4.32;;
35592;SDS011;64447;52.140;5.602;2023-07-08T07:52:52;5.50;;;4.00;;
35592;SDS011;64447;52.140;5.602;2023-07-08T07:58:40;8.02;;;4.18;;
35592;SDS011;64447;52.140;5.602;2023-07-08T08:01:05;5.70;;;4.20;;
35592;SDS011;64447;52.140;5.602;2023-07-08T08:03:31;4.82;;;4.38;;
35592;SDS011;64447;52.140;5.602;2023-07-08T08:05:57;7.72;;;5.03;;
35592;SDS011;64447;52.140;5.602;2023-07-08T08:08:22;9.20;;;4.68;;
35592;SDS011;64447;52.140;5.602;2023-07-08T08:10:48;9.45;;;4.45;;
35592;SDS011;64447;52.140;5.602;2023-07-08T08:13:14;7.13;;;4.65;;
35592;SDS011;64447;52.140;5.602;2023-07-08T08:15:40;8.25;;;4.63;;
35592;SDS011;64447;52.140;5.602;2023-07-08T08:18:05;7.80;;;4.43;;
35592;SDS011;64447;52.140;5.602;2023-07-08T08:20:31;7.90;;;5.28;;
35592;SDS011;64447;52.140;5.602;2023-07-08T08:22:56;6.25;;;4.70;;
35592;SDS011;64447;52.140;5.602;2023-07-08T08:28:44;9.65;;;4.78;;
35592;SDS011;64447;52.140;5.602;2023-07-08T08:31:10;5.38;;;4.57;;
35592;SDS011;64447;52.140;5.602;2023-07-08T08:33:35;8.75;;;5.00;;
35592;SDS011;64447;52.140;5.602;2023-07-08T08:36:01;5.97;;;4.38;;
35592;SDS011;64447;52.140;5.602;2023-07-08T08:38:26;8.98;;;4.30;;
35592;SDS011;64447;52.140;5.602;2023-07-08T08:40:52;8.80;;;5.22;;
35592;SDS011;64447;52.140;5.602;2023-07-08T08:43:22;7.35;;;5.07;;
35592;SDS011;64447;52.140;5.602;2023-07-08T08:46:00;7.18;;;5.32;;
35592;SDS011;64447;52.140;5.602;2023-07-08T08:48:40;5.70;;;5.13;;
35592;SDS011;64447;52.140;5.602;2023-07-08T08:51:13;10.48;;;5.13;;
35592;SDS011;64447;52.140;5.602;2023-07-08T08:53:40;8.10;;;5.25;;
35592;SDS011;64447;52.140;5.602;2023-07-08T08:56:20;9.10;;;5.60;;
35592;SDS011;64447;52.140;5.602;2023-07-08T08:58:52;6.95;;;5.07;;
35592;SDS011;64447;52.140;5.602;2023-07-08T09:01:22;8.07;;;5.75;;
35592;SDS011;64447;52.140;5.602;2023-07-08T09:03:50;9.55;;;5.65;;
35592;SDS011;64447;52.140;5.602;2023-07-08T09:06:26;6.18;;;5.35;;
35592;SDS011;64447;52.140;5.602;2023-07-08T09:08:54;7.65;;;5.45;;
35592;SDS011;64447;52.140;5.602;2023-07-08T09:14:20;7.82;;;5.43;;
35592;SDS011;64447;52.140;5.602;2023-07-08T09:19:41;7.28;;;5.60;;
35592;SDS011;64447;52.140;5.602;2023-07-08T09:22:17;7.20;;;5.35;;
35592;SDS011;64447;52.140;5.602;2023-07-08T09:24:58;8.63;;;5.70;;
35592;SDS011;64447;52.140;5.602;2023-07-08T09:27:45;7.78;;;5.65;;
35592;SDS011;64447;52.140;5.602;2023-07-08T09:30:15;6.60;;;5.88;;
35592;SDS011;64447;52.140;5.602;2023-07-08T09:32:42;8.48;;;5.40;;
35592;SDS011;64447;52.140;5.602;2023-07-08T09:35:08;10.10;;;5.95;;
35592;SDS011;64447;52.140;5.602;2023-07-08T09:37:41;10.05;;;5.78;;
35592;SDS011;64447;52.140;5.602;2023-07-08T09:42:42;8.55;;;5.57;;
35592;SDS011;64447;52.140;5.602;2023-07-08T09:45:14;8.02;;;5.68;;
35592;SDS011;64447;52.140;5.602;2023-07-08T09:47:42;8.23;;;5.68;;
35592;SDS011;64447;52.140;5.602;2023-07-08T09:52:42;8.30;;;6.15;;
35592;SDS011;64447;52.140;5.602;2023-07-08T09:55:10;7.75;;;5.90;;
35592;SDS011;64447;52.140;5.602;2023-07-08T09:57:36;9.15;;;6.47;;
35592;SDS011;64447;52.140;5.602;2023-07-08T10:00:08;13.30;;;5.97;;
35592;SDS011;64447;52.140;5.602;2023-07-08T10:02:45;8.48;;;6.35;;
35592;SDS011;64447;52.140;5.602;2023-07-08T10:07:45;8.65;;;6.28;;
35592;SDS011;64447;52.140;5.602;2023-07-08T10:10:19;9.05;;;6.07;;
35592;SDS011;64447;52.140;5.602;2023-07-08T10:12:55;8.43;;;6.22;;
35592;SDS011;64447;52.140;5.602;2023-07-08T10:17:57;7.82;;;6.45;;
35592;SDS011;64447;52.140;5.602;2023-07-08T10:20:22;9.25;;;6.95;;
35592;SDS011;64447;52.140;5.602;2023-07-08T10:22:58;10.77;;;7.57;;
35592;SDS011;64447;52.140;5.602;2023-07-08T10:25:59;9.93;;;6.93;;
35592;SDS011;64447;52.140;5.602;2023-07-08T10:28:39;8.90;;;7.15;;
35592;SDS011;64447;52.140;5.602;2023-07-08T10:42:51;9.45;;;6.80;;
35592;SDS011;64447;52.140;5.602;2023-07-08T10:45:34;9.52;;;7.00;;
35592;SDS011;64447;52.140;5.602;2023-07-08T10:51:02;8.82;;;6.80;;
35592;SDS011;64447;52.140;5.602;2023-07-08T10:57:42;10.57;;;7.93;;
35592;SDS011;64447;52.140;5.602;2023-07-08T11:02:56;12.50;;;7.38;;
35592;SDS011;64447;52.140;5.602;2023-07-08T11:05:44;13.68;;;7.20;;
35592;SDS011;64447;52.140;5.602;2023-07-08T11:19:22;10.18;;;7.10;;
35592;SDS011;64447;52.140;5.602;2023-07-08T11:22:00;12.38;;;7.43;;
35592;SDS011;64447;52.140;5.602;2023-07-08T11:27:11;9.60;;;7.40;;
35592;SDS011;64447;52.140;5.602;2023-07-08T11:29:45;11.65;;;7.13;;
35592;SDS011;64447;52.140;5.602;2023-07-08T11:32:20;11.15;;;7.68;;
35592;SDS011;64447;52.140;5.602;2023-07-08T11:34:53;9.85;;;7.10;;
35592;SDS011;64447;52.140;5.602;2023-07-08T11:37:20;9.13;;;7.35;;
35592;SDS011;64447;52.140;5.602;2023-07-08T11:39:53;8.77;;;7.00;;
35592;SDS011;64447;52.140;5.602;2023-07-08T11:42:40;10.32;;;7.30;;
35592;SDS011;64447;52.140;5.602;2023-07-08T11:45:12;9.35;;;6.85;;
35592;SDS011;64447;52.140;5.602;2023-07-08T11:47:40;10.57;;;7.03;;
35592;SDS011;64447;52.140;5.602;2023-07-08T11:52:59;8.88;;;6.90;;
35592;SDS011;64447;52.140;5.602;2023-07-08T12:04:16;9.10;;;7.00;;
35592;SDS011;64447;52.140;5.602;2023-07-08T12:06:42;8.05;;;6.38;;
35592;SDS011;64447;52.140;5.602;2023-07-08T12:09:14;7.88;;;6.55;;
35592;SDS011;64447;52.140;5.602;2023-07-08T12:12:24;9.60;;;6.95;;
35592;SDS011;64447;52.140;5.602;2023-07-08T12:14:58;8.88;;;6.78;;
35592;SDS011;64447;52.140;5.602;2023-07-08T12:17:37;9.90;;;7.03;;
35592;SDS011;64447;52.140;5.602;2023-07-08T12:20:05;11.02;;;7.18;;
35592;SDS011;64447;52.140;5.602;2023-07-08T12:23:03;9.13;;;6.88;;
35592;SDS011;64447;52.140;5.602;2023-07-08T12:29:00;9.48;;;6.47;;
35592;SDS011;64447;52.140;5.602;2023-07-08T12:31:26;9.25;;;6.93;;
35592;SDS011;64447;52.140;5.602;2023-07-08T12:33:51;9.20;;;6.50;;
35592;SDS011;64447;52.140;5.602;2023-07-08T12:36:18;9.75;;;6.63;;
35592;SDS011;64447;52.140;5.602;2023-07-08T12:38:52;10.93;;;6.65;;
35592;SDS011;64447;52.140;5.602;2023-07-08T12:44:42;10.73;;;7.10;;
35592;SDS011;64447;52.140;5.602;2023-07-08T12:47:09;10.27;;;6.68;;
35592;SDS011;64447;52.140;5.602;2023-07-08T12:49:34;8.85;;;6.65;;
35592;SDS011;64447;52.140;5.602;2023-07-08T12:52:00;9.57;;;7.07;;
35592;SDS011;64447;52.140;5.602;2023-07-08T12:54:27;10.65;;;6.43;;
35592;SDS011;64447;52.140;5.602;2023-07-08T13:00:16;9.18;;;5.95;;
35592;SDS011;64447;52.140;5.602;2023-07-08T13:02:55;9.63;;;6.80;;
35592;SDS011;64447;52.140;5.602;2023-07-08T13:05:30;8.65;;;6.28;;
35592;SDS011;64447;52.140;5.602;2023-07-08T13:07:56;9.07;;;7.10;;
35592;SDS011;64447;52.140;5.602;2023-07-08T13:10:23;7.32;;;5.93;;
35592;SDS011;64447;52.140;5.602;2023-07-08T13:12:52;10.77;;;6.88;;
35592;SDS011;64447;52.140;5.602;2023-07-08T13:15:23;8.35;;;6.57;;
35592;SDS011;64447;52.140;5.602;2023-07-08T13:17:54;6.90;;;5.90;;
35592;SDS011;64447;52.140;5.602;2023-07-08T13:20:19;9.07;;;6.57;;
35592;SDS011;64447;52.140;5.602;2023-07-08T13:22:48;8.85;;;6.70;;
35592;SDS011;64447;52.140;5.602;2023-07-08T13:25:20;9.07;;;6.53;;
35592;SDS011;64447;52.140;5.602;2023-07-08T13:28:02;8.25;;;5.88;;
35592;SDS011;64447;52.140;5.602;2023-07-08T13:30:48;7.43;;;6.32;;
35592;SDS011;64447;52.140;5.602;2023-07-08T13:33:18;9.63;;;6.32;;
35592;SDS011;64447;52.140;5.602;2023-07-08T13:35:45;9.80;;;6.45;;
35592;SDS011;64447;52.140;5.602;2023-07-08T13:38:14;8.98;;;6.10;;
35592;SDS011;64447;52.140;5.602;2023-07-08T13:40:42;7.78;;;5.97;;
35592;SDS011;64447;52.140;5.602;2023-07-08T13:43:10;8.82;;;6.28;;
35592;SDS011;64447;52.140;5.602;2023-07-08T13:45:36;8.27;;;6.50;;
35592;SDS011;64447;52.140;5.602;2023-07-08T13:48:12;9.00;;;6.25;;
35592;SDS011;64447;52.140;5.602;2023-07-08T13:53:26;8.10;;;5.97;;
35592;SDS011;64447;52.140;5.602;2023-07-08T13:56:03;10.10;;;6.43;;
35592;SDS011;64447;52.140;5.602;2023-07-08T13:58:41;9.13;;;6.43;;
35592;SDS011;64447;52.140;5.602;2023-07-08T14:01:13;9.63;;;6.10;;
35592;SDS011;64447;52.140;5.602;2023-07-08T14:03:48;6.70;;;5.80;;
35592;SDS011;64447;52.140;5.602;2023-07-08T14:06:15;7.93;;;6.00;;
35592;SDS011;64447;52.140;5.602;2023-07-08T14:08:45;9.93;;;6.00;;
35592;SDS011;64447;52.140;5.602;2023-07-08T14:11:11;9.50;;;6.03;;
35592;SDS011;64447;52.140;5.602;2023-07-08T14:13:36;7.78;;;6.00;;
35592;SDS011;64447;52.140;5.602;2023-07-08T14:16:02;10.02;;;5.88;;
35592;SDS011;64447;52.140;5.602;2023-07-08T14:18:30;8.65;;;5.47;;
35592;SDS011;64447;52.140;5.602;2023-07-08T14:20:56;8.10;;;5.53;;
35592;SDS011;64447;52.140;5.602;2023-07-08T14:23:23;9.00;;;5.95;;
35592;SDS011;64447;52.140;5.602;2023-07-08T14:25:49;8.93;;;5.55;;
35592;SDS011;64447;52.140;5.602;2023-07-08T14:28:14;8.25;;;5.80;;
35592;SDS011;64447;52.140;5.602;2023-07-08T14:30:44;10.82;;;6.07;;
35592;SDS011;64447;52.140;5.602;2023-07-08T14:33:12;9.27;;;5.75;;
35592;SDS011;64447;52.140;5.602;2023-07-08T14:35:38;8.07;;;5.32;;
35592;SDS011;64447;52.140;5.602;2023-07-08T14:38:11;7.90;;;5.47;;
35592;SDS011;64447;52.140;5.602;2023-07-08T14:40:38;12.13;;;5.93;;
35592;SDS011;64447;52.140;5.602;2023-07-08T14:43:09;7.00;;;4.90;;
35592;SDS011;64447;52.140;5.602;2023-07-08T14:45:43;9.90;;;5.60;;
35592;SDS011;64447;52.140;5.602;2023-07-08T14:48:12;10.65;;;5.70;;
35592;SDS011;64447;52.140;5.602;2023-07-08T14:50:39;8.45;;;5.60;;
35592;SDS011;64447;52.140;5.602;2023-07-08T14:53:05;8.00;;;5.65;;
35592;SDS011;64447;52.140;5.602;2023-07-08T14:55:30;6.38;;;5.30;;
35592;SDS011;64447;52.140;5.602;2023-07-08T14:57:57;9.80;;;5.97;;
35592;SDS011;64447;52.140;5.602;2023-07-08T15:00:23;11.18;;;6.13;;
35592;SDS011;64447;52.140;5.602;2023-07-08T15:02:49;14.55;;;5.88;;
35592;SDS011;64447;52.140;5.602;2023-07-08T15:05:18;9.57;;;5.85;;
35592;SDS011;64447;52.140;5.602;2023-07-08T15:07:53;10.63;;;6.10;;
35592;SDS011;64447;52.140;5.602;2023-07-08T15:10:20;8.55;;;5.95;;
35592;SDS011;64447;52.140;5.602;2023-07-08T15:12:48;9.98;;;5.90;;
35592;SDS011;64447;52.140;5.602;2023-07-08T15:15:18;9.95;;;6.13;;
35592;SDS011;64447;52.140;5.602;2023-07-08T15:17:53;8.82;;;6.35;;
35592;SDS011;64447;52.140;5.602;2023-07-08T15:20:19;7.72;;;6.00;;
35592;SDS011;64447;52.140;5.602;2023-07-08T15:22:46;7.57;;;5.80;;
35592;SDS011;64447;52.140;5.602;2023-07-08T15:25:12;9.48;;;6.78;;
35592;SDS011;64447;52.140;5.602;2023-07-08T15:31:01;10.48;;;6.80;;
35592;SDS011;64447;52.140;5.602;2023-07-08T15:33:28;9.85;;;6.70;;
35592;SDS011;64447;52.140;5.602;2023-07-08T15:35:53;8.88;;;6.57;;
35592;SDS011;64447;52.140;5.602;2023-07-08T15:38:19;12.30;;;8.70;;
35592;SDS011;64447;52.140;5.602;2023-07-08T15:40:44;12.80;;;9.02;;
35592;SDS011;64447;52.140;5.602;2023-07-08T15:43:12;13.20;;;10.70;;
35592;SDS011;64447;52.140;5.602;2023-07-08T15:45:39;12.10;;;8.27;;
35592;SDS011;64447;52.140;5.602;2023-07-08T15:48:11;11.77;;;7.65;;
35592;SDS011;64447;52.140;5.602;2023-07-08T15:50:40;9.00;;;7.63;;
35592;SDS011;64447;52.140;5.602;2023-07-08T15:53:06;8.98;;;6.85;;
35592;SDS011;64447;52.140;5.602;2023-07-08T15:55:34;12.95;;;6.70;;
35592;SDS011;64447;52.140;5.602;2023-07-08T15:58:18;10.80;;;6.97;;
35592;SDS011;64447;52.140;5.602;2023-07-08T16:00:45;8.88;;;6.38;;
35592;SDS011;64447;52.140;5.602;2023-07-08T16:03:21;8.73;;;6.38;;
35592;SDS011;64447;52.140;5.602;2023-07-08T16:05:49;8.20;;;6.25;;
35592;SDS011;64447;52.140;5.602;2023-07-08T16:08:15;9.10;;;6.40;;
35592;SDS011;64447;52.140;5.602;2023-07-08T16:10:41;7.95;;;6.13;;
35592;SDS011;64447;52.140;5.602;2023-07-08T16:13:08;8.32;;;6.03;;
35592;SDS011;64447;52.140;5.602;2023-07-08T16:15:35;10.50;;;6.53;;
35592;SDS011;64447;52.140;5.602;2023-07-08T16:18:03;10.32;;;6.13;;
35592;SDS011;64447;52.140;5.602;2023-07-08T16:20:30;12.73;;;6.60;;
35592;SDS011;64447;52.140;5.602;2023-07-08T16:22:57;10.77;;;6.65;;
35592;SDS011;64447;52.140;5.602;2023-07-08T16:25:32;11.05;;;6.47;;
35592;SDS011;64447;52.140;5.602;2023-07-08T16:32:11;8.98;;;6.65;;
35592;SDS011;64447;52.140;5.602;2023-07-08T16:34:39;12.40;;;6.78;;
35592;SDS011;64447;52.140;5.602;2023-07-08T16:37:04;10.80;;;6.13;;
35592;SDS011;64447;52.140;5.602;2023-07-08T16:39:30;9.38;;;6.47;;
35592;SDS011;64447;52.140;5.602;2023-07-08T16:41:56;10.00;;;6.88;;
35592;SDS011;64447;52.140;5.602;2023-07-08T16:44:22;9.00;;;6.05;;
35592;SDS011;64447;52.140;5.602;2023-07-08T16:46:48;10.13;;;6.70;;
35592;SDS011;64447;52.140;5.602;2023-07-08T16:49:13;9.20;;;6.80;;
35592;SDS011;64447;52.140;5.602;2023-07-08T16:51:40;8.43;;;6.55;;
35592;SDS011;64447;52.140;5.602;2023-07-08T16:54:16;8.93;;;6.75;;
35592;SDS011;64447;52.140;5.602;2023-07-08T16:56:43;8.93;;;6.85;;
35592;SDS011;64447;52.140;5.602;2023-07-08T16:59:14;9.85;;;6.40;;
35592;SDS011;64447;52.140;5.602;2023-07-08T17:01:41;10.27;;;6.63;;